createdAt,value
2023-09-29T00:01:59.096Z,15.87
2023-09-29T00:04:30.175Z,15.84
2023-09-29T00:07:00.446Z,15.77
2023-09-29T00:09:31.650Z,15.78
2023-09-29T00:12:02.876Z,15.76
2023-09-29T00:14:33.236Z,15.84
2023-09-29T00:17:03.830Z,15.93
2023-09-29T00:19:35.506Z,15.95
2023-09-29T00:22:06.688Z,15.81
2023-09-29T00:24:36.943Z,15.91
2023-09-29T00:27:07.207Z,15.80
2023-09-29T00:29:38.959Z,15.70
2023-09-29T00:32:09.187Z,15.76
2023-09-29T00:34:38.903Z,15.80
2023-09-29T00:37:10.105Z,15.83
2023-09-29T00:39:41.078Z,15.71
2023-09-29T00:42:11.737Z,15.68
2023-09-29T00:44:41.892Z,15.87
2023-09-29T00:47:14.511Z,16.06
2023-09-29T00:49:45.260Z,16.14
2023-09-29T00:52:19.154Z,16.12
2023-09-29T00:54:49.000Z,16.14
2023-09-29T00:57:19.264Z,16.09
2023-09-29T00:59:51.180Z,16.11
2023-09-29T01:02:23.338Z,16.04
2023-09-29T01:04:53.454Z,16.06
2023-09-29T01:07:23.223Z,16.09
2023-09-29T01:09:53.433Z,16.02
2023-09-29T01:12:30.803Z,15.98
2023-09-29T01:15:02.810Z,16.02
2023-09-29T01:17:33.491Z,16.08
2023-09-29T01:20:08.018Z,15.94
2023-09-29T01:22:50.846Z,15.87
2023-09-29T01:25:22.067Z,15.94
2023-09-29T01:27:52.663Z,15.87
2023-09-29T01:30:22.971Z,15.80
2023-09-29T01:32:55.889Z,15.83
2023-09-29T01:35:26.979Z,15.87
2023-09-29T01:38:01.589Z,15.97
2023-09-29T01:40:32.700Z,15.88
2023-09-29T01:43:03.136Z,15.81
2023-09-29T01:45:34.837Z,15.63
2023-09-29T01:48:05.402Z,15.56
2023-09-29T01:50:35.459Z,15.53
2023-09-29T01:53:06.127Z,15.46
2023-09-29T01:55:37.249Z,15.50
2023-09-29T01:58:07.855Z,15.57
2023-09-29T02:00:38.130Z,15.63
2023-09-29T02:03:10.111Z,15.67
2023-09-29T02:05:42.368Z,15.74
2023-09-29T02:08:13.039Z,15.71
2023-09-29T02:10:44.354Z,15.81
2023-09-29T02:13:14.679Z,15.90
2023-09-29T02:15:44.928Z,15.87
2023-09-29T02:18:16.339Z,15.73
2023-09-29T02:20:49.103Z,15.78
2023-09-29T02:23:19.328Z,15.85
2023-09-29T02:25:51.135Z,16.11
2023-09-29T02:28:22.469Z,15.97
2023-09-29T02:30:52.552Z,16.01
2023-09-29T02:33:25.231Z,15.78
2023-09-29T02:35:59.035Z,15.66
2023-09-29T02:38:30.708Z,15.64
2023-09-29T02:41:02.143Z,15.56
2023-09-29T02:43:32.850Z,15.60
2023-09-29T02:46:03.199Z,15.64
2023-09-29T02:48:34.783Z,15.56
2023-09-29T02:51:05.410Z,15.61
2023-09-29T02:53:36.487Z,15.63
2023-09-29T02:56:07.930Z,15.54
2023-09-29T02:58:38.520Z,15.49
2023-09-29T03:01:14.200Z,15.46
2023-09-29T03:03:48.662Z,15.44
2023-09-29T03:06:22.944Z,15.43
2023-09-29T03:08:57.389Z,15.26
2023-09-29T03:11:28.244Z,15.19
2023-09-29T03:13:59.379Z,15.36
2023-09-29T03:16:30.217Z,15.29
2023-09-29T03:19:03.142Z,15.32
2023-09-29T03:21:35.076Z,15.53
2023-09-29T03:24:06.075Z,15.68
2023-09-29T03:26:36.965Z,15.54
2023-09-29T03:29:08.274Z,15.47
2023-09-29T03:31:39.296Z,15.43
2023-09-29T03:34:09.497Z,15.44
2023-09-29T03:36:39.957Z,15.39
2023-09-29T03:39:12.951Z,15.42
2023-09-29T03:41:43.641Z,15.40
2023-09-29T03:44:16.202Z,15.27
2023-09-29T03:46:46.891Z,15.19
2023-09-29T03:49:17.513Z,15.10
2023-09-29T03:51:47.283Z,14.95
2023-09-29T03:54:18.959Z,14.81
2023-09-29T03:56:49.750Z,14.69
2023-09-29T03:59:20.632Z,14.67
2023-09-29T04:01:51.038Z,14.69
2023-09-29T04:04:21.293Z,14.63
2023-09-29T04:06:51.982Z,14.56
2023-09-29T04:09:22.979Z,14.57
2023-09-29T04:11:53.549Z,14.58
2023-09-29T04:14:33.779Z,14.68
2023-09-29T04:17:07.172Z,14.74
2023-09-29T04:19:37.677Z,14.87
2023-09-29T04:22:07.551Z,14.85
2023-09-29T04:24:38.932Z,14.98
2023-09-29T04:27:09.499Z,15.16
2023-09-29T04:29:40.121Z,15.03
2023-09-29T04:32:10.290Z,15.12
2023-09-29T04:34:40.873Z,15.06
2023-09-29T04:37:11.501Z,15.06
2023-09-29T04:39:41.632Z,15.06
2023-09-29T04:42:12.421Z,15.08
2023-09-29T04:44:43.204Z,15.20
2023-09-29T04:47:13.515Z,15.32
2023-09-29T04:49:45.111Z,15.25
2023-09-29T04:52:15.269Z,15.29
2023-09-29T04:54:46.251Z,15.18
2023-09-29T04:57:17.325Z,15.06
2023-09-29T04:59:48.542Z,14.89
2023-09-29T05:02:18.905Z,14.72
2023-09-29T05:04:49.878Z,14.68
2023-09-29T05:07:21.161Z,14.57
2023-09-29T05:09:51.940Z,14.56
2023-09-29T05:12:22.618Z,14.63
2023-09-29T05:14:52.532Z,14.72
2023-09-29T05:17:23.195Z,14.72
2023-09-29T05:19:55.146Z,14.69
2023-09-29T05:22:25.235Z,14.58
2023-09-29T05:24:58.450Z,14.44
2023-09-29T05:27:34.041Z,14.31
2023-09-29T05:30:07.084Z,14.13
2023-09-29T05:32:37.648Z,14.06
2023-09-29T05:35:09.204Z,13.93
2023-09-29T05:37:40.132Z,13.87
2023-09-29T05:40:11.136Z,13.76
2023-09-29T05:42:51.672Z,13.68
2023-09-29T05:45:23.234Z,13.63
2023-09-29T05:47:54.288Z,13.63
2023-09-29T05:50:26.246Z,13.61
2023-09-29T05:53:09.896Z,13.57
2023-09-29T05:55:42.344Z,13.52
2023-09-29T05:58:13.264Z,13.50
2023-09-29T06:00:43.854Z,13.50
2023-09-29T06:03:13.700Z,13.50
2023-09-29T06:05:44.843Z,13.52
2023-09-29T06:08:15.714Z,13.51
2023-09-29T06:10:47.598Z,13.48
2023-09-29T06:13:17.965Z,13.45
2023-09-29T06:15:47.789Z,13.50
2023-09-29T06:18:18.594Z,13.51
2023-09-29T06:20:48.960Z,13.50
2023-09-29T06:23:19.712Z,13.47
2023-09-29T06:25:49.601Z,13.42
2023-09-29T06:28:20.168Z,13.42
2023-09-29T06:30:51.072Z,13.38
2023-09-29T06:33:21.799Z,13.37
2023-09-29T06:35:52.070Z,13.32
2023-09-29T06:38:22.516Z,13.35
2023-09-29T06:40:53.560Z,13.45
2023-09-29T06:43:24.789Z,13.55
2023-09-29T06:46:01.173Z,13.50
2023-09-29T06:48:32.528Z,13.45
2023-09-29T06:51:02.548Z,13.41
2023-09-29T06:53:33.499Z,13.37
2023-09-29T06:56:04.796Z,13.32
2023-09-29T06:58:34.534Z,13.32
2023-09-29T07:01:07.565Z,13.32
2023-09-29T07:03:39.457Z,13.40
2023-09-29T07:06:10.024Z,13.40
2023-09-29T07:08:40.444Z,13.42
2023-09-29T07:11:10.796Z,13.45
2023-09-29T07:13:41.842Z,13.44
2023-09-29T07:16:12.097Z,13.40
2023-09-29T07:18:43.716Z,13.30
2023-09-29T07:21:13.800Z,13.37
2023-09-29T07:23:43.637Z,13.32
2023-09-29T07:26:14.369Z,13.27
2023-09-29T07:28:45.086Z,13.18
2023-09-29T07:31:17.326Z,13.14
2023-09-29T07:33:48.018Z,13.25
2023-09-29T07:36:17.928Z,13.25
2023-09-29T07:38:48.273Z,13.25
2023-09-29T07:41:19.459Z,13.28
2023-09-29T07:43:50.630Z,13.25
2023-09-29T07:46:20.870Z,13.21
2023-09-29T07:48:51.601Z,13.18
2023-09-29T07:51:21.934Z,13.17
2023-09-29T07:53:53.880Z,13.13
2023-09-29T07:56:23.836Z,13.04
2023-09-29T07:58:54.705Z,12.99
2023-09-29T08:01:25.859Z,13.00
2023-09-29T08:03:56.363Z,12.93
2023-09-29T08:06:27.666Z,12.89
2023-09-29T08:08:58.336Z,12.84
2023-09-29T08:11:28.895Z,12.83
2023-09-29T08:13:59.485Z,12.86
2023-09-29T08:16:29.293Z,12.84
2023-09-29T08:18:59.928Z,12.82
2023-09-29T08:21:31.244Z,12.80
2023-09-29T08:24:10.822Z,12.82
2023-09-29T08:26:41.616Z,12.83
2023-09-29T08:29:18.084Z,12.82
2023-09-29T08:31:48.978Z,12.84
2023-09-29T08:34:20.603Z,12.80
2023-09-29T08:36:51.116Z,12.79
2023-09-29T08:39:22.154Z,12.79
2023-09-29T08:42:12.344Z,12.76
2023-09-29T08:44:46.104Z,12.79
2023-09-29T08:47:21.454Z,12.76
2023-09-29T08:49:52.127Z,12.79
2023-09-29T08:52:22.413Z,12.76
2023-09-29T08:54:53.098Z,12.72
2023-09-29T08:57:24.123Z,12.76
2023-09-29T08:59:56.586Z,12.75
2023-09-29T09:02:27.137Z,12.76
2023-09-29T09:04:59.219Z,12.79
2023-09-29T09:07:30.185Z,12.75
2023-09-29T09:10:00.821Z,12.73
2023-09-29T09:12:38.913Z,12.79
2023-09-29T09:15:12.415Z,12.82
2023-09-29T09:17:43.577Z,12.84
2023-09-29T09:20:13.973Z,12.87
2023-09-29T09:22:47.122Z,12.90
2023-09-29T09:25:19.431Z,13.00
2023-09-29T09:28:01.717Z,13.15
2023-09-29T09:30:38.061Z,13.27
2023-09-29T09:33:08.560Z,13.42
2023-09-29T09:35:41.042Z,13.55
2023-09-29T09:38:12.155Z,13.71
2023-09-29T09:40:45.161Z,13.90
2023-09-29T09:43:16.461Z,14.08
2023-09-29T09:45:47.126Z,14.26
2023-09-29T09:48:22.758Z,14.41
2023-09-29T09:50:57.725Z,14.68
2023-09-29T09:53:33.367Z,14.96
2023-09-29T09:56:22.786Z,15.19
2023-09-29T09:58:54.512Z,15.37
2023-09-29T10:01:26.294Z,15.53
2023-09-29T10:03:59.204Z,15.63
2023-09-29T10:06:32.293Z,15.74
2023-09-29T10:09:05.159Z,15.85
2023-09-29T10:11:36.430Z,15.97
2023-09-29T10:14:10.324Z,16.04
2023-09-29T10:16:43.387Z,16.09
2023-09-29T10:19:14.843Z,16.16
2023-09-29T10:21:52.235Z,16.38
2023-09-29T10:24:29.995Z,16.36
2023-09-29T10:27:01.965Z,16.60
2023-09-29T10:29:36.452Z,17.07
2023-09-29T10:32:18.293Z,17.30
2023-09-29T10:34:48.718Z,17.59
2023-09-29T10:37:19.035Z,18.21
2023-09-29T10:39:50.753Z,20.01
2023-09-29T10:42:26.000Z,21.03
2023-09-29T10:44:58.167Z,20.38
2023-09-29T10:47:37.137Z,19.26
2023-09-29T10:50:09.618Z,20.47
2023-09-29T10:52:42.716Z,19.22
2023-09-29T10:55:16.273Z,18.92
2023-09-29T10:57:49.549Z,18.87
2023-09-29T11:00:21.257Z,19.89
2023-09-29T11:02:52.244Z,20.55
2023-09-29T11:05:23.215Z,20.56
2023-09-29T11:07:54.497Z,20.72
2023-09-29T11:10:25.141Z,20.12
2023-09-29T11:12:55.503Z,20.50
2023-09-29T11:15:29.093Z,23.51
2023-09-29T11:17:59.235Z,24.24
2023-09-29T11:20:29.915Z,24.73
2023-09-29T11:23:14.045Z,22.76
2023-09-29T11:25:52.724Z,23.88
2023-09-29T11:28:23.483Z,25.44
2023-09-29T11:30:53.544Z,25.51
2023-09-29T11:33:25.433Z,25.37
2023-09-29T11:36:06.408Z,25.55
2023-09-29T11:38:37.281Z,25.81
2023-09-29T11:41:10.122Z,25.24
2023-09-29T11:43:43.320Z,25.59
2023-09-29T11:46:16.512Z,25.88
2023-09-29T11:48:47.974Z,26.07
2023-09-29T11:51:18.427Z,26.22
2023-09-29T11:53:50.755Z,26.55
2023-09-29T11:56:23.227Z,26.81
2023-09-29T11:58:53.596Z,26.17
2023-09-29T12:01:23.882Z,26.67
2023-09-29T12:03:55.711Z,26.44
2023-09-29T12:06:27.411Z,26.80
2023-09-29T12:08:57.834Z,26.12
2023-09-29T12:11:27.654Z,26.80
2023-09-29T12:13:58.469Z,26.72
2023-09-29T12:16:29.311Z,26.65
2023-09-29T12:19:00.204Z,25.93
2023-09-29T12:21:30.039Z,25.83
2023-09-29T12:24:00.321Z,26.02
2023-09-29T12:26:31.832Z,26.23
2023-09-29T12:29:03.078Z,26.67
2023-09-29T12:31:34.436Z,27.01
2023-09-29T12:34:06.433Z,26.98
2023-09-29T12:36:36.948Z,26.78
2023-09-29T12:39:07.818Z,26.88
2023-09-29T12:41:40.745Z,26.44
2023-09-29T12:44:12.040Z,26.24
2023-09-29T12:46:42.282Z,26.80
2023-09-29T12:49:13.074Z,26.81
2023-09-29T12:51:57.887Z,26.92
2023-09-29T12:54:31.291Z,27.33
2023-09-29T12:57:03.275Z,27.47
2023-09-29T12:59:41.087Z,27.32
2023-09-29T13:02:11.935Z,27.20
2023-09-29T13:04:44.069Z,27.80
2023-09-29T13:07:14.760Z,27.98
2023-09-29T13:09:45.032Z,27.29
2023-09-29T13:12:30.094Z,27.73
2023-09-29T13:15:02.028Z,27.36
2023-09-29T13:17:32.512Z,27.50
2023-09-29T13:20:03.256Z,27.30
2023-09-29T13:22:34.446Z,27.57
2023-09-29T13:25:06.545Z,27.64
2023-09-29T13:27:36.775Z,28.45
2023-09-29T13:30:07.916Z,28.62
2023-09-29T13:32:38.688Z,28.18
2023-09-29T13:35:10.537Z,28.17
2023-09-29T13:37:43.893Z,28.86
2023-09-29T13:40:15.243Z,27.09
2023-09-29T13:42:47.886Z,27.54
2023-09-29T13:45:19.635Z,27.67
2023-09-29T13:47:50.106Z,26.67
2023-09-29T13:50:20.515Z,27.64
2023-09-29T13:52:51.404Z,28.73
2023-09-29T13:55:22.086Z,29.20
2023-09-29T13:57:52.176Z,29.03
2023-09-29T14:00:24.226Z,27.71
2023-09-29T14:02:55.458Z,27.32
2023-09-29T14:05:27.360Z,27.91
2023-09-29T14:07:58.502Z,27.67
2023-09-29T14:10:28.496Z,27.06
2023-09-29T14:13:00.781Z,26.89
2023-09-29T14:15:36.251Z,28.49
2023-09-29T14:18:07.606Z,28.32
2023-09-29T14:20:38.219Z,28.11
2023-09-29T14:23:12.003Z,28.75
2023-09-29T14:25:42.566Z,28.32
2023-09-29T14:28:12.293Z,28.94
2023-09-29T14:30:43.734Z,28.36
2023-09-29T14:33:14.370Z,29.41
2023-09-29T14:35:49.208Z,29.71
2023-09-29T14:38:20.158Z,28.89
2023-09-29T14:40:50.139Z,29.52
2023-09-29T14:43:21.031Z,29.35
2023-09-29T14:45:52.572Z,27.98
2023-09-29T14:48:23.554Z,28.75
2023-09-29T14:50:53.650Z,28.21
2023-09-29T14:53:24.448Z,27.77
2023-09-29T14:55:55.628Z,27.29
2023-09-29T14:58:26.495Z,27.09
2023-09-29T15:00:56.469Z,26.99
2023-09-29T15:03:28.387Z,27.03
2023-09-29T15:06:07.590Z,26.99
2023-09-29T15:08:41.490Z,26.51
2023-09-29T15:11:12.834Z,26.36
2023-09-29T15:13:43.799Z,26.39
2023-09-29T15:16:19.076Z,27.02
2023-09-29T15:18:54.429Z,27.08
2023-09-29T15:21:24.648Z,26.50
2023-09-29T15:23:58.134Z,27.86
2023-09-29T15:26:30.574Z,27.86
2023-09-29T15:29:00.843Z,27.60
2023-09-29T15:31:30.942Z,27.59
2023-09-29T15:34:01.247Z,27.30
2023-09-29T15:36:34.650Z,27.32
2023-09-29T15:39:14.563Z,27.13
2023-09-29T15:41:45.423Z,27.18
2023-09-29T15:44:17.462Z,28.04
2023-09-29T15:46:48.348Z,28.25
2023-09-29T15:49:20.230Z,28.22
2023-09-29T15:51:50.347Z,27.66
2023-09-29T15:54:20.154Z,27.50
2023-09-29T15:56:50.729Z,27.96
2023-09-29T15:59:20.956Z,28.55
2023-09-29T16:01:51.959Z,29.23
2023-09-29T16:04:22.195Z,28.83
2023-09-29T16:06:52.046Z,27.86
2023-09-29T16:09:22.365Z,27.26
2023-09-29T16:11:52.908Z,27.32
2023-09-29T16:14:23.937Z,27.97
2023-09-29T16:16:54.508Z,28.73
2023-09-29T16:19:24.429Z,29.18
2023-09-29T16:21:55.358Z,29.52
2023-09-29T16:24:25.793Z,31.05
2023-09-29T16:26:56.051Z,31.73
2023-09-29T16:29:26.035Z,31.59
2023-09-29T16:31:57.145Z,30.50
2023-09-29T16:34:28.737Z,28.80
2023-09-29T16:36:58.810Z,28.34
2023-09-29T16:39:28.709Z,27.86
2023-09-29T16:42:00.413Z,27.40
2023-09-29T16:44:30.762Z,27.09
2023-09-29T16:47:02.984Z,26.82
2023-09-29T16:49:33.460Z,26.60
2023-09-29T16:52:03.943Z,26.52
2023-09-29T16:54:34.688Z,26.39
2023-09-29T16:57:04.950Z,25.96
2023-09-29T16:59:35.427Z,25.90
2023-09-29T17:02:05.773Z,25.89
2023-09-29T17:04:37.878Z,25.88
2023-09-29T17:07:09.605Z,26.02
2023-09-29T17:09:40.093Z,26.09
2023-09-29T17:12:12.405Z,26.14
2023-09-29T17:14:43.649Z,26.80
2023-09-29T17:17:14.683Z,26.65
2023-09-29T17:19:47.438Z,26.82
2023-09-29T17:22:19.881Z,28.34
2023-09-29T17:24:50.454Z,28.84
2023-09-29T17:27:21.049Z,28.04
2023-09-29T17:29:51.776Z,27.61
2023-09-29T17:32:21.896Z,27.01
2023-09-29T17:34:52.588Z,26.88
2023-09-29T17:37:23.585Z,27.02
2023-09-29T17:39:54.688Z,27.01
2023-09-29T17:42:24.896Z,27.12
2023-09-29T17:44:56.231Z,26.99
2023-09-29T17:47:27.429Z,26.84
2023-09-29T17:49:57.612Z,26.72
2023-09-29T17:52:28.083Z,27.02
2023-09-29T17:55:00.615Z,27.54
2023-09-29T17:57:31.007Z,28.38
2023-09-29T18:00:02.129Z,28.65
2023-09-29T18:02:36.257Z,28.11
2023-09-29T18:05:08.520Z,27.70
2023-09-29T18:07:40.646Z,27.03
2023-09-29T18:10:11.871Z,26.87
2023-09-29T18:12:42.101Z,26.80
2023-09-29T18:15:13.059Z,26.47
2023-09-29T18:17:45.321Z,26.12
2023-09-29T18:20:17.292Z,25.90
2023-09-29T18:22:47.880Z,25.69
2023-09-29T18:25:18.733Z,25.58
2023-09-29T18:27:48.749Z,25.41
2023-09-29T18:30:19.431Z,25.20
2023-09-29T18:32:49.394Z,24.97
2023-09-29T18:35:19.543Z,24.90
2023-09-29T18:37:49.792Z,24.70
2023-09-29T18:40:22.496Z,24.66
2023-09-29T18:42:54.010Z,24.72
2023-09-29T18:45:24.761Z,24.83
2023-09-29T18:47:54.690Z,24.93
2023-09-29T18:50:26.172Z,25.23
2023-09-29T18:52:57.426Z,25.72
2023-09-29T18:55:28.741Z,30.27
2023-09-29T18:57:58.922Z,27.67
2023-09-29T19:00:34.075Z,26.17
2023-09-29T19:03:04.820Z,25.46
2023-09-29T19:05:39.863Z,25.02
2023-09-29T19:08:10.570Z,24.83
2023-09-29T19:10:40.363Z,24.70
2023-09-29T19:13:11.310Z,24.52
2023-09-29T19:15:47.334Z,24.51
2023-09-29T19:18:17.426Z,24.52
2023-09-29T19:20:47.671Z,24.46
2023-09-29T19:23:18.589Z,24.48
2023-09-29T19:25:48.918Z,24.45
2023-09-29T19:28:19.700Z,24.56
2023-09-29T19:30:49.471Z,25.48
2023-09-29T19:33:19.574Z,25.52
2023-09-29T19:35:50.112Z,26.94
2023-09-29T19:38:20.956Z,28.01
2023-09-29T19:40:51.156Z,27.10
2023-09-29T19:43:25.636Z,26.62
2023-09-29T19:45:56.364Z,26.84
2023-09-29T19:48:26.856Z,26.61
2023-09-29T19:51:14.683Z,26.24
2023-09-29T19:53:44.920Z,26.24
2023-09-29T19:56:21.864Z,26.33
2023-09-29T19:58:53.374Z,26.16
2023-09-29T20:01:25.897Z,27.43
2023-09-29T20:03:56.633Z,27.29
2023-09-29T20:06:27.550Z,27.02
2023-09-29T20:08:59.361Z,25.97
2023-09-29T20:11:30.483Z,24.72
2023-09-29T20:14:00.611Z,24.28
2023-09-29T20:16:30.977Z,24.57
2023-09-29T20:19:02.677Z,24.38
2023-09-29T20:21:33.037Z,23.89
2023-09-29T20:24:04.063Z,23.43
2023-09-29T20:26:38.013Z,23.19
2023-09-29T20:29:08.743Z,23.01
2023-09-29T20:31:38.911Z,22.99
2023-09-29T20:34:09.837Z,22.98
2023-09-29T20:36:40.428Z,22.78
2023-09-29T20:39:12.055Z,22.60
2023-09-29T20:41:42.764Z,22.50
2023-09-29T20:44:14.353Z,22.36
2023-09-29T20:46:44.560Z,22.20
2023-09-29T20:49:15.005Z,22.07
2023-09-29T20:51:45.951Z,21.99
2023-09-29T20:54:16.164Z,21.92
2023-09-29T20:56:46.385Z,21.85
2023-09-29T20:59:16.976Z,21.76
2023-09-29T21:01:48.158Z,21.67
2023-09-29T21:04:19.171Z,21.52
2023-09-29T21:06:49.680Z,21.39
2023-09-29T21:09:20.087Z,21.31
2023-09-29T21:11:51.189Z,21.24
2023-09-29T21:14:21.443Z,21.17
2023-09-29T21:16:51.541Z,21.10
2023-09-29T21:19:22.635Z,20.96
2023-09-29T21:21:52.839Z,20.86
2023-09-29T21:24:23.338Z,20.83
2023-09-29T21:26:53.146Z,20.73
2023-09-29T21:29:23.606Z,20.56
2023-09-29T21:31:56.313Z,20.47
2023-09-29T21:34:27.643Z,20.42
2023-09-29T21:36:58.378Z,20.42
2023-09-29T21:39:29.096Z,20.38
2023-09-29T21:41:59.671Z,20.39
2023-09-29T21:44:29.793Z,20.25
2023-09-29T21:46:59.914Z,20.22
2023-09-29T21:49:29.732Z,20.18
2023-09-29T21:52:00.400Z,20.25
2023-09-29T21:54:31.274Z,20.19
2023-09-29T21:57:02.128Z,20.11
2023-09-29T21:59:32.190Z,19.98
2023-09-29T22:02:01.940Z,19.81
2023-09-29T22:04:32.105Z,19.64
2023-09-29T22:07:02.298Z,19.66
2023-09-29T22:09:32.787Z,19.82
2023-09-29T22:12:03.396Z,19.94
2023-09-29T22:14:35.645Z,19.97
2023-09-29T22:17:06.143Z,19.95
2023-09-29T22:19:37.162Z,19.91
2023-09-29T22:22:07.561Z,19.85
2023-09-29T22:24:37.362Z,19.70
2023-09-29T22:27:07.968Z,19.75
2023-09-29T22:29:39.925Z,19.70
2023-09-29T22:32:10.426Z,19.50
2023-09-29T22:34:40.669Z,19.45
2023-09-29T22:37:11.564Z,19.40
2023-09-29T22:39:47.333Z,19.40
2023-09-29T22:42:17.956Z,19.30
2023-09-29T22:44:47.767Z,19.30
2023-09-29T22:47:18.746Z,19.15
2023-09-29T22:49:49.203Z,19.06
2023-09-29T22:52:19.352Z,19.05
2023-09-29T22:54:49.187Z,18.89
2023-09-29T22:57:19.420Z,18.81
2023-09-29T22:59:49.871Z,18.72
2023-09-29T23:02:23.185Z,18.67
2023-09-29T23:04:53.363Z,18.67
2023-09-29T23:07:23.886Z,18.68
2023-09-29T23:09:54.721Z,18.61
2023-09-29T23:12:25.433Z,18.55
2023-09-29T23:14:55.750Z,18.50
2023-09-29T23:17:25.669Z,18.44
2023-09-29T23:19:57.345Z,18.43
2023-09-29T23:22:28.430Z,18.43
2023-09-29T23:24:58.870Z,18.41
2023-09-29T23:27:29.343Z,18.38
2023-09-29T23:29:59.792Z,18.37
2023-09-29T23:32:32.937Z,18.33
2023-09-29T23:35:04.475Z,18.30
2023-09-29T23:37:34.307Z,18.33
2023-09-29T23:40:07.816Z,18.33
2023-09-29T23:42:39.196Z,18.33
2023-09-29T23:45:13.996Z,18.36
2023-09-29T23:47:45.401Z,18.31
2023-09-29T23:50:16.093Z,18.31
2023-09-29T23:52:47.047Z,18.30
2023-09-29T23:55:18.754Z,18.27
2023-09-29T23:57:48.881Z,18.26
